Time;durP1;ratioP1;P1;durP2;ratioP2;P2;SDS_P1;SDS_P2;PMS_P1;PMS_P2;Temp;Humidity;BMP_temperature;BMP_pressure;BME280_temperature;BME280_humidity;BME280_pressure;Samples;Min_cycle;Max_cycle;Signal;HPM_P1;HPM_P2
2023/12/22 00:01:09;;;;;;;28.42;3.97;;;6.20;99.90;;;;;;5156070;27;20038;-87
2023/12/22 00:03:35;;;;;;;40.50;5.38;;;7.00;99.90;;;;;;5137868;27;20038;-86
2023/12/22 00:06:01;;;;;;;21.60;3.00;;;5.50;99.90;;;;;;5120534;27;20106;-86
2023/12/22 00:08:26;;;;;;;28.02;4.72;;;6.80;99.90;;;;;;5137099;27;20070;-86
2023/12/22 00:10:52;;;;;;;30.67;3.45;;;6.60;99.90;;;;;;5170478;27;20046;-87
2023/12/22 00:17:03;;;;;;;19.90;2.42;;;5.10;99.90;;;;;;5171889;27;20126;-86
2023/12/22 00:19:29;;;;;;;20.75;2.58;;;5.60;99.90;;;;;;5111668;27;20057;-87
2023/12/22 00:21:54;;;;;;;15.43;2.25;;;6.50;99.90;;;;;;5120138;27;20046;-87
2023/12/22 00:24:20;;;;;;;18.75;2.38;;;5.70;99.90;;;;;;5136039;27;20137;-88
2023/12/22 00:26:46;;;;;;;17.85;2.22;;;6.90;99.90;;;;;;5137426;27;20087;-87
2023/12/22 00:29:11;;;;;;;17.45;2.75;;;5.50;99.90;;;;;;5126058;27;20066;-87
2023/12/22 00:31:37;;;;;;;17.42;2.83;;;5.60;99.90;;;;;;5137071;27;20071;-88
2023/12/22 00:34:04;;;;;;;18.40;2.78;;;6.80;99.90;;;;;;5106612;27;20046;-88
2023/12/22 00:36:29;;;;;;;20.98;2.78;;;5.90;99.90;;;;;;5098885;27;20035;-88
2023/12/22 00:38:55;;;;;;;18.58;1.92;;;6.10;99.90;;;;;;5115841;27;20479;-87
2023/12/22 00:41:21;;;;;;;11.35;1.35;;;6.40;99.90;;;;;;5103633;27;20047;-86
2023/12/22 00:43:46;;;;;;;14.07;1.25;;;5.00;99.90;;;;;;5099566;27;20046;-88
2023/12/22 00:46:13;;;;;;;13.73;2.20;;;6.90;99.90;;;;;;5099417;27;20517;-88
2023/12/22 00:48:39;;;;;;;12.50;2.00;;;6.40;99.90;;;;;;5110630;27;20080;-88
2023/12/22 00:51:07;;;;;;;21.85;2.20;;;6.70;99.90;;;;;;5136987;27;20478;-87
2023/12/22 00:53:33;;;;;;;25.63;3.35;;;5.90;99.90;;;;;;5116164;27;20047;-87
2023/12/22 00:56:00;;;;;;;24.73;3.28;;;6.50;99.90;;;;;;5099341;27;20050;-88
2023/12/22 00:58:26;;;;;;;25.30;3.75;;;5.90;99.90;;;;;;5115885;27;20081;-87
2023/12/22 01:00:51;;;;;;;18.83;3.58;;;6.70;99.90;;;;;;5112530;28;20140;-88
2023/12/22 01:03:17;;;;;;;30.55;4.25;;;7.10;99.90;;;;;;5115916;27;20035;-88
2023/12/22 01:05:43;;;;;;;30.80;4.05;;;6.60;99.90;;;;;;5099390;27;20509;-87
2023/12/22 01:08:09;;;;;;;24.73;3.03;;;6.10;99.90;;;;;;5099007;27;20043;-87
2023/12/22 01:10:34;;;;;;;31.13;4.78;;;6.30;99.90;;;;;;5134119;27;20046;-87
2023/12/22 01:13:00;;;;;;;21.33;4.18;;;7.50;99.90;;;;;;5143103;27;20551;-88
2023/12/22 01:15:26;;;;;;;28.25;4.47;;;7.30;99.90;;;;;;5115599;27;20126;-87
2023/12/22 01:17:52;;;;;;;26.25;4.25;;;6.90;99.90;;;;;;5140951;27;20074;-87
2023/12/22 01:20:18;;;;;;;27.92;3.38;;;7.30;99.90;;;;;;5135970;27;20443;-86
2023/12/22 01:22:43;;;;;;;27.45;4.03;;;7.40;99.90;;;;;;5136126;27;20155;-87
2023/12/22 01:25:09;;;;;;;33.67;4.72;;;5.60;99.90;;;;;;5154665;27;20039;-87
2023/12/22 01:27:35;;;;;;;24.05;3.70;;;7.50;99.90;;;;;;5136633;27;20082;-88
2023/12/22 01:30:00;;;;;;;27.02;3.40;;;7.50;99.90;;;;;;5157747;27;20472;-87
2023/12/22 01:32:26;;;;;;;28.65;4.03;;;7.40;99.90;;;;;;5117698;27;20047;-87
2023/12/22 01:34:52;;;;;;;18.63;3.70;;;7.30;99.90;;;;;;5135987;27;20046;-87
2023/12/22 01:37:17;;;;;;;22.65;3.83;;;7.20;99.90;;;;;;5136128;27;20035;-88
2023/12/22 01:39:43;;;;;;;37.08;4.80;;;7.70;99.90;;;;;;5154489;27;20524;-88
2023/12/22 01:42:09;;;;;;;24.13;3.58;;;6.50;99.90;;;;;;5154294;27;20062;-87
2023/12/22 01:44:34;;;;;;;26.00;4.15;;;7.30;99.90;;;;;;5135568;27;20047;-87
2023/12/22 01:47:00;;;;;;;36.28;5.72;;;6.40;99.90;;;;;;5138771;27;20038;-86
2023/12/22 01:49:29;;;;;;;30.67;4.28;;;6.40;99.90;;;;;;5174942;27;20041;-87
2023/12/22 01:51:55;;;;;;;24.08;3.20;;;6.80;99.90;;;;;;5171795;27;20309;-87
2023/12/22 01:54:20;;;;;;;16.80;2.13;;;6.40;99.90;;;;;;5153916;27;20546;-86
2023/12/22 01:56:46;;;;;;;25.98;3.72;;;6.30;99.90;;;;;;5136044;27;20043;-86
2023/12/22 01:59:12;;;;;;;12.50;2.13;;;6.50;99.90;;;;;;5118536;27;20050;-87
2023/12/22 02:01:39;;;;;;;22.05;2.60;;;7.10;99.90;;;;;;5138703;27;20042;-86
2023/12/22 02:04:05;;;;;;;18.00;2.58;;;6.80;99.90;;;;;;5140364;27;20077;-87
2023/12/22 02:06:35;;;;;;;17.00;2.45;;;7.10;99.90;;;;;;5154067;27;20471;-86
2023/12/22 02:09:01;;;;;;;25.52;3.53;;;6.50;99.90;;;;;;5118514;27;20046;-87
2023/12/22 02:11:27;;;;;;;29.27;3.88;;;6.40;99.90;;;;;;5135783;27;20115;-87
2023/12/22 02:13:53;;;;;;;20.25;3.00;;;6.80;99.90;;;;;;5135038;27;20035;-86
2023/12/22 02:16:26;;;;;;;20.42;2.55;;;6.60;99.90;;;;;;5135357;27;20030;-87
2023/12/22 02:18:55;;;;;;;18.35;1.95;;;6.70;99.90;;;;;;5135174;27;20051;-87
2023/12/22 02:21:21;;;;;;;17.95;2.58;;;7.10;99.90;;;;;;5163349;27;20046;-87
2023/12/22 02:23:49;;;;;;;12.80;1.40;;;6.20;99.90;;;;;;5124910;28;20043;-87
2023/12/22 02:26:41;;;;;;;9.73;1.70;;;5.90;99.90;;;;;;5133735;28;20471;-86
2023/12/22 02:29:09;;;;;;;8.38;1.27;;;7.00;99.90;;;;;;5146891;27;20406;-86
2023/12/22 02:31:44;;;;;;;14.40;1.73;;;6.70;99.90;;;;;;5118126;27;20099;-87
2023/12/22 02:34:17;;;;;;;17.13;1.73;;;6.60;99.90;;;;;;5153767;27;20047;-86
2023/12/22 02:36:44;;;;;;;19.30;2.05;;;5.70;99.90;;;;;;5135837;27;20394;-87
2023/12/22 02:39:10;;;;;;;15.50;2.72;;;6.80;99.90;;;;;;5160956;27;20078;-87
2023/12/22 02:41:36;;;;;;;34.67;4.32;;;6.10;99.90;;;;;;5118237;27;20045;-87
2023/12/22 02:44:02;;;;;;;25.33;3.83;;;6.40;99.90;;;;;;5134767;27;20043;-87
2023/12/22 02:46:28;;;;;;;25.45;5.20;;;5.90;99.90;;;;;;5135229;27;20057;-87
2023/12/22 02:48:53;;;;;;;29.20;5.95;;;6.20;99.90;;;;;;5153528;27;20030;-87
2023/12/22 02:51:19;;;;;;;23.63;2.83;;;6.80;99.90;;;;;;5135517;27;20483;-86
2023/12/22 02:53:45;;;;;;;18.45;2.60;;;6.50;99.90;;;;;;5118017;27;20072;-87
2023/12/22 02:56:10;;;;;;;23.13;3.35;;;7.10;99.90;;;;;;5135634;27;20125;-86
2023/12/22 02:58:36;;;;;;;23.40;3.88;;;7.00;99.90;;;;;;5118938;27;20047;-87
2023/12/22 03:01:02;;;;;;;17.13;1.55;;;6.20;99.90;;;;;;5157227;27;20148;-87
2023/12/22 03:03:28;;;;;;;12.90;1.80;;;6.10;99.90;;;;;;5138648;27;20091;-86
2023/12/22 03:05:53;;;;;;;11.15;1.58;;;5.60;99.90;;;;;;5138661;27;20039;-88
2023/12/22 03:08:19;;;;;;;13.52;1.33;;;6.60;99.90;;;;;;5168565;27;20042;-87
2023/12/22 03:10:45;;;;;;;13.35;1.88;;;6.00;99.90;;;;;;5153640;27;20095;-87
2023/12/22 03:13:10;;;;;;;12.43;1.80;;;5.30;99.90;;;;;;5138793;27;20054;-87
2023/12/22 03:15:36;;;;;;;16.90;1.42;;;5.00;99.90;;;;;;5138782;27;20038;-87
2023/12/22 03:18:02;;;;;;;11.40;1.40;;;5.40;99.90;;;;;;5138534;27;20133;-87
2023/12/22 03:20:27;;;;;;;14.80;2.45;;;5.10;99.90;;;;;;5138236;27;20050;-87
2023/12/22 03:22:53;;;;;;;16.52;1.60;;;5.60;99.90;;;;;;5138482;27;20364;-87
2023/12/22 03:25:19;;;;;;;18.42;1.63;;;6.10;99.90;;;;;;5124194;27;20042;-87
2023/12/22 03:27:45;;;;;;;19.75;2.67;;;6.00;99.90;;;;;;5159393;27;20048;-87
2023/12/22 03:30:11;;;;;;;25.25;2.35;;;5.40;99.90;;;;;;5159295;27;20129;-87
2023/12/22 03:32:36;;;;;;;20.42;3.35;;;5.50;99.90;;;;;;5159215;27;20038;-87
2023/12/22 03:35:02;;;;;;;19.58;2.30;;;5.60;99.90;;;;;;5177824;27;20042;-87
2023/12/22 03:37:28;;;;;;;22.23;4.05;;;5.80;99.90;;;;;;5177892;27;20112;-86
2023/12/22 03:39:54;;;;;;;18.48;2.22;;;7.10;99.90;;;;;;5126893;27;20129;-87
2023/12/22 03:42:20;;;;;;;25.58;3.08;;;6.30;99.90;;;;;;5158803;27;20092;-87
2023/12/22 03:44:45;;;;;;;22.20;3.38;;;6.00;99.90;;;;;;5177385;27;20393;-86
2023/12/22 03:47:11;;;;;;;27.80;3.50;;;7.00;99.90;;;;;;5177175;27;20035;-86
2023/12/22 03:49:37;;;;;;;20.95;2.85;;;7.20;99.90;;;;;;5141404;27;20462;-86
2023/12/22 03:52:02;;;;;;;24.90;2.33;;;6.30;99.90;;;;;;5158143;27;20034;-86
2023/12/22 03:54:28;;;;;;;16.65;2.63;;;6.00;99.90;;;;;;5161484;27;20049;-86
2023/12/22 03:56:54;;;;;;;18.70;3.05;;;6.30;99.90;;;;;;5120431;27;20178;-86
2023/12/22 03:59:19;;;;;;;26.60;3.90;;;6.80;99.90;;;;;;5137272;27;20043;-87
2023/12/22 04:01:52;;;;;;;5.75;0.95;;;6.00;99.90;;;;;;5120592;27;20474;-87
2023/12/22 04:04:17;;;;;;;13.77;1.52;;;6.00;99.90;;;;;;5137570;27;20160;-86
2023/12/22 04:06:43;;;;;;;19.30;1.60;;;6.10;99.90;;;;;;5140566;27;20487;-86
2023/12/22 04:09:09;;;;;;;12.82;1.58;;;7.20;99.90;;;;;;5141083;27;20087;-86
2023/12/22 04:11:36;;;;;;;16.92;2.00;;;6.70;99.90;;;;;;5158027;27;20053;-85
2023/12/22 04:14:02;;;;;;;10.80;1.48;;;6.00;99.90;;;;;;5149745;27;20050;-86
2023/12/22 04:16:28;;;;;;;15.10;1.50;;;6.90;99.90;;;;;;5137403;27;20042;-86
2023/12/22 04:18:54;;;;;;;25.65;2.45;;;6.20;99.90;;;;;;5155382;27;20047;-86
2023/12/22 04:21:20;;;;;;;13.77;2.10;;;6.50;99.90;;;;;;5137186;27;20058;-86
2023/12/22 04:23:45;;;;;;;20.90;3.67;;;6.90;99.90;;;;;;5155854;27;20043;-86
2023/12/22 04:26:11;;;;;;;26.70;3.13;;;5.80;99.90;;;;;;5137137;27;20047;-86
2023/12/22 04:28:37;;;;;;;25.52;3.17;;;6.40;99.90;;;;;;5156533;27;20034;-85
2023/12/22 04:31:03;;;;;;;20.92;3.72;;;7.00;99.90;;;;;;5136884;27;20401;-87
2023/12/22 04:33:28;;;;;;;18.13;2.58;;;5.90;99.90;;;;;;5136855;27;20487;-86
2023/12/22 04:35:54;;;;;;;21.23;2.70;;;7.10;99.90;;;;;;5136788;27;20046;-87
2023/12/22 04:38:20;;;;;;;24.95;3.25;;;6.20;99.90;;;;;;5119827;27;20168;-87
2023/12/22 04:40:45;;;;;;;24.30;2.83;;;6.50;99.90;;;;;;5120231;27;20517;-87
2023/12/22 04:43:11;;;;;;;21.50;2.80;;;6.50;99.90;;;;;;5137171;27;20039;-86
2023/12/22 04:45:37;;;;;;;21.90;3.20;;;7.30;99.90;;;;;;5136841;27;20401;-87
2023/12/22 04:48:03;;;;;;;26.17;3.33;;;7.70;99.90;;;;;;5119668;27;20045;-87
2023/12/22 04:50:28;;;;;;;19.70;2.47;;;6.40;99.90;;;;;;5122946;27;20390;-86
2023/12/22 04:52:54;;;;;;;19.08;3.20;;;7.10;99.90;;;;;;5157485;27;20050;-87
2023/12/22 04:55:20;;;;;;;27.67;3.83;;;7.00;99.90;;;;;;5176051;27;20458;-86
2023/12/22 04:57:45;;;;;;;27.13;2.83;;;5.80;99.90;;;;;;5174806;27;20049;-86
2023/12/22 05:00:12;;;;;;;22.33;2.53;;;7.60;99.90;;;;;;5157212;27;20069;-86
2023/12/22 05:02:37;;;;;;;17.45;2.35;;;6.60;99.90;;;;;;5156332;27;20377;-86
2023/12/22 05:05:03;;;;;;;21.45;2.70;;;6.50;99.90;;;;;;5175610;27;20045;-87
2023/12/22 05:07:30;;;;;;;33.33;3.20;;;6.60;99.90;;;;;;5147811;27;20042;-86
2023/12/22 05:09:55;;;;;;;19.70;2.83;;;6.90;99.90;;;;;;5154767;27;20082;-87
2023/12/22 05:12:21;;;;;;;16.90;2.30;;;6.60;99.90;;;;;;5154577;27;20078;-87
2023/12/22 05:14:47;;;;;;;23.23;3.00;;;7.50;99.90;;;;;;5118963;27;20600;-86
2023/12/22 05:17:12;;;;;;;20.00;2.17;;;7.30;99.90;;;;;;5154239;27;20043;-86
2023/12/22 05:19:38;;;;;;;28.13;3.33;;;7.80;99.90;;;;;;5136810;27;20130;-87
2023/12/22 05:22:04;;;;;;;20.95;2.92;;;7.60;99.90;;;;;;5153984;27;20051;-86
2023/12/22 05:24:29;;;;;;;17.58;3.20;;;7.00;99.90;;;;;;5154297;27;20038;-86
2023/12/22 05:26:55;;;;;;;22.15;3.30;;;6.70;99.90;;;;;;5154288;27;20035;-86
2023/12/22 05:29:21;;;;;;;32.75;3.42;;;6.70;99.90;;;;;;5118736;27;20039;-86
2023/12/22 05:31:47;;;;;;;13.05;2.35;;;7.40;99.90;;;;;;5135663;27;20372;-87
2023/12/22 05:34:12;;;;;;;30.23;2.80;;;7.40;99.90;;;;;;5135411;27;20050;-87
2023/12/22 05:36:38;;;;;;;19.70;3.00;;;7.80;99.90;;;;;;5136051;27;20030;-86
2023/12/22 05:39:04;;;;;;;14.85;3.08;;;7.60;99.90;;;;;;5135472;27;20526;-86
2023/12/22 05:41:29;;;;;;;22.48;3.65;;;7.80;99.90;;;;;;5135963;27;20077;-86
2023/12/22 05:43:55;;;;;;;16.05;2.97;;;7.40;99.90;;;;;;5154391;27;20035;-86
2023/12/22 05:46:21;;;;;;;23.30;3.72;;;6.90;99.90;;;;;;5138728;27;20054;-86
2023/12/22 05:48:46;;;;;;;24.10;2.90;;;6.80;99.90;;;;;;5158584;27;20099;-87
2023/12/22 05:51:13;;;;;;;21.02;3.13;;;7.20;99.90;;;;;;5136122;27;20126;-86
2023/12/22 05:53:42;;;;;;;28.65;3.28;;;7.90;99.90;;;;;;5135665;27;20046;-86
2023/12/22 05:56:19;;;;;;;28.65;4.03;;;6.80;99.90;;;;;;5135572;27;20076;-86
2023/12/22 05:58:45;;;;;;;21.27;3.60;;;7.60;99.90;;;;;;5154098;27;20051;-86
2023/12/22 06:01:18;;;;;;;22.63;3.20;;;7.80;99.90;;;;;;5115190;28;20061;-86
2023/12/22 06:03:44;;;;;;;34.20;3.88;;;7.50;99.90;;;;;;5115123;28;20047;-86
2023/12/22 06:06:10;;;;;;;36.80;3.15;;;5.30;99.90;;;;;;5097856;28;20054;-86
2023/12/22 06:08:37;;;;;;;22.80;2.60;;;7.50;99.90;;;;;;5114999;28;20047;-86
2023/12/22 06:11:03;;;;;;;25.75;4.60;;;6.30;99.90;;;;;;5115092;28;20074;-87
2023/12/22 06:13:29;;;;;;;29.67;3.70;;;6.80;99.90;;;;;;5097820;28;20078;-86
2023/12/22 06:15:54;;;;;;;25.23;3.13;;;6.90;99.90;;;;;;5135267;27;20050;-88
2023/12/22 06:18:20;;;;;;;22.65;2.72;;;7.90;99.90;;;;;;5118299;27;20051;-86
2023/12/22 06:20:46;;;;;;;19.92;3.88;;;7.40;99.90;;;;;;5119672;27;20047;-86
2023/12/22 06:23:11;;;;;;;18.20;2.95;;;7.30;99.90;;;;;;5138893;27;20035;-87
2023/12/22 06:25:37;;;;;;;20.02;2.35;;;7.70;99.90;;;;;;5156121;27;20043;-87
2023/12/22 06:28:03;;;;;;;24.55;2.88;;;8.10;99.90;;;;;;5145351;27;20031;-86
2023/12/22 06:30:30;;;;;;;19.65;2.85;;;7.10;99.90;;;;;;5153968;27;20140;-87
2023/12/22 06:32:56;;;;;;;26.48;2.83;;;7.10;99.90;;;;;;5135692;27;20092;-87
2023/12/22 06:35:25;;;;;;;14.10;2.42;;;7.90;99.90;;;;;;5157832;27;20095;-87
2023/12/22 06:37:51;;;;;;;13.00;1.95;;;8.00;99.90;;;;;;5139325;27;20054;-86
2023/12/22 06:40:18;;;;;;;17.15;2.00;;;7.40;99.90;;;;;;5157854;27;20035;-87
2023/12/22 06:42:44;;;;;;;16.30;3.25;;;6.80;99.90;;;;;;5139371;27;20042;-87
2023/12/22 06:45:10;;;;;;;21.95;2.38;;;7.80;99.90;;;;;;5139317;27;20055;-86
2023/12/22 06:47:36;;;;;;;21.23;2.80;;;6.60;99.90;;;;;;5122093;27;20153;-87
2023/12/22 06:50:03;;;;;;;13.82;2.50;;;6.70;99.90;;;;;;5121908;27;20039;-87
2023/12/22 06:52:30;;;;;;;22.92;2.25;;;6.60;99.90;;;;;;5139091;27;20067;-86
2023/12/22 06:54:56;;;;;;;19.75;1.85;;;7.60;99.90;;;;;;5170949;27;20098;-86
2023/12/22 06:57:22;;;;;;;10.68;2.45;;;7.10;99.90;;;;;;5144198;27;20030;-86
2023/12/22 06:59:49;;;;;;;17.75;1.98;;;7.20;99.90;;;;;;5159613;27;20149;-87
2023/12/22 07:02:15;;;;;;;14.32;1.95;;;7.20;99.90;;;;;;5178510;27;20034;-87
2023/12/22 07:05:09;;;;;;;17.88;1.88;;;6.90;99.90;;;;;;5159596;27;20038;-87
2023/12/22 07:07:35;;;;;;;23.58;2.35;;;6.50;99.90;;;;;;5142350;27;20414;-86
2023/12/22 07:10:01;;;;;;;22.60;2.72;;;7.50;99.90;;;;;;5143668;27;20046;-87
2023/12/22 07:12:27;;;;;;;17.65;2.67;;;7.30;99.90;;;;;;5178241;27;20060;-87
2023/12/22 07:14:53;;;;;;;15.38;2.70;;;7.00;99.90;;;;;;5140555;27;20078;-86
2023/12/22 07:17:19;;;;;;;13.65;2.40;;;6.30;99.90;;;;;;5156779;27;20048;-86
2023/12/22 07:19:45;;;;;;;14.02;2.63;;;5.90;99.90;;;;;;5138481;27;20046;-86
2023/12/22 07:22:11;;;;;;;20.35;2.50;;;5.70;99.90;;;;;;5121628;27;20082;-87
2023/12/22 07:24:37;;;;;;;18.67;2.00;;;5.60;99.90;;;;;;5156978;27;20035;-86
2023/12/22 07:27:03;;;;;;;21.48;3.20;;;6.40;99.90;;;;;;5138408;27;20054;-86
2023/12/22 07:29:29;;;;;;;24.05;2.65;;;5.40;99.90;;;;;;5137926;27;20043;-87
2023/12/22 07:31:54;;;;;;;22.00;2.22;;;6.20;99.90;;;;;;5138403;27;20054;-87
2023/12/22 07:34:22;;;;;;;17.42;2.92;;;5.90;99.90;;;;;;5138415;27;20487;-86
2023/12/22 07:36:48;;;;;;;15.73;1.77;;;5.40;99.90;;;;;;5156876;27;20082;-87
2023/12/22 07:39:14;;;;;;;17.77;2.08;;;5.50;99.90;;;;;;5138208;27;20126;-87
2023/12/22 07:41:40;;;;;;;18.73;2.72;;;6.00;99.90;;;;;;5157347;27;20050;-86
2023/12/22 07:44:06;;;;;;;23.55;2.22;;;5.20;99.90;;;;;;5137978;27;20051;-88
2023/12/22 07:46:31;;;;;;;20.63;1.90;;;6.20;99.90;;;;;;5156085;27;20031;-86
2023/12/22 07:48:57;;;;;;;22.38;2.28;;;6.50;99.90;;;;;;5156174;27;20043;-87
2023/12/22 07:51:23;;;;;;;18.75;2.85;;;5.20;99.90;;;;;;5138020;27;20030;-86
2023/12/22 07:53:48;;;;;;;21.95;3.72;;;6.10;99.90;;;;;;5137898;27;20047;-86
2023/12/22 07:56:14;;;;;;;19.50;2.63;;;5.70;99.90;;;;;;5120808;27;20429;-87
2023/12/22 07:58:40;;;;;;;17.95;2.45;;;6.10;99.90;;;;;;5138143;27;20042;-89
2023/12/22 08:01:05;;;;;;;15.30;2.85;;;6.50;99.90;;;;;;5122233;27;20244;-87
2023/12/22 08:03:32;;;;;;;23.30;3.75;;;6.30;99.90;;;;;;5125333;27;20475;-86
2023/12/22 08:05:58;;;;;;;34.50;4.50;;;6.40;99.90;;;;;;5137015;27;20049;-86
2023/12/22 08:08:24;;;;;;;25.33;3.15;;;5.50;99.90;;;;;;5156226;27;20042;-87
2023/12/22 08:10:49;;;;;;;22.67;3.35;;;5.90;99.90;;;;;;5140120;27;20042;-86
2023/12/22 08:13:16;;;;;;;26.05;4.80;;;5.30;99.90;;;;;;5177193;27;20482;-87
2023/12/22 08:15:42;;;;;;;35.00;4.25;;;6.50;99.90;;;;;;5176983;27;20042;-86
2023/12/22 08:18:09;;;;;;;25.98;3.80;;;5.80;99.90;;;;;;5137824;27;20043;-87
2023/12/22 08:20:34;;;;;;;28.58;3.22;;;6.60;99.90;;;;;;5137153;27;20042;-86
2023/12/22 08:23:00;;;;;;;31.05;4.40;;;5.90;99.90;;;;;;5136997;27;20375;-87
2023/12/22 08:25:26;;;;;;;24.77;3.13;;;6.70;99.90;;;;;;5137119;27;20099;-87
2023/12/22 08:27:52;;;;;;;17.38;2.95;;;6.70;99.90;;;;;;5137594;27;20041;-87
2023/12/22 08:30:17;;;;;;;24.58;3.28;;;5.60;99.90;;;;;;5155139;27;20053;-86
2023/12/22 08:32:43;;;;;;;30.52;3.78;;;6.40;99.90;;;;;;5137102;27;20070;-86
2023/12/22 08:35:09;;;;;;;17.52;2.97;;;5.90;99.90;;;;;;5158824;27;20038;-88
2023/12/22 08:37:35;;;;;;;13.05;1.83;;;6.30;99.90;;;;;;5140004;27;20039;-87
2023/12/22 08:40:00;;;;;;;22.85;2.63;;;6.70;99.90;;;;;;5158505;27;20061;-87
2023/12/22 08:42:27;;;;;;;25.63;2.22;;;6.20;99.90;;;;;;5155582;27;20039;-88
2023/12/22 08:44:53;;;;;;;17.77;2.28;;;5.50;99.90;;;;;;5136698;27;20050;-87
2023/12/22 08:47:19;;;;;;;16.35;1.85;;;6.70;99.90;;;;;;5119377;27;20395;-88
2023/12/22 08:49:45;;;;;;;16.60;1.77;;;5.70;99.90;;;;;;5137019;27;20039;-88
2023/12/22 08:52:10;;;;;;;15.32;2.38;;;5.90;99.90;;;;;;5118760;27;20038;-87
2023/12/22 08:54:36;;;;;;;15.63;2.80;;;6.00;99.90;;;;;;5119405;27;20057;-87
2023/12/22 08:57:02;;;;;;;15.70;2.10;;;6.50;99.90;;;;;;5136058;27;20034;-87
2023/12/22 08:59:28;;;;;;;22.23;2.83;;;5.70;99.90;;;;;;5136916;27;20046;-89
2023/12/22 09:01:54;;;;;;;17.15;2.38;;;6.70;99.90;;;;;;5119812;27;20039;-90
2023/12/22 09:04:22;;;;;;;21.98;2.53;;;5.70;99.90;;;;;;5137695;27;20497;-88
2023/12/22 09:06:51;;;;;;;25.73;2.97;;;6.40;99.90;;;;;;5158341;27;20030;-86
2023/12/22 09:09:17;;;;;;;19.95;3.40;;;6.50;99.90;;;;;;5129036;27;20039;-87
2023/12/22 09:11:43;;;;;;;16.98;2.88;;;5.50;99.90;;;;;;5159436;27;20134;-89
2023/12/22 09:14:09;;;;;;;18.63;2.60;;;6.90;99.90;;;;;;5140691;27;20129;-89
2023/12/22 09:16:36;;;;;;;21.90;3.00;;;6.50;99.90;;;;;;5139219;27;20046;-87
2023/12/22 09:19:02;;;;;;;28.35;3.08;;;7.00;99.90;;;;;;5139192;27;20050;-88
2023/12/22 09:21:28;;;;;;;28.67;2.65;;;6.50;99.90;;;;;;5140021;27;20046;-90
2023/12/22 09:23:54;;;;;;;23.08;3.30;;;6.60;99.90;;;;;;5157087;27;20094;-88
2023/12/22 09:26:20;;;;;;;18.00;2.85;;;6.00;99.90;;;;;;5140110;27;20038;-88
2023/12/22 09:28:46;;;;;;;22.35;3.08;;;6.70;99.90;;;;;;5138195;27;20563;-88
2023/12/22 09:31:15;;;;;;;21.73;2.95;;;6.80;99.90;;;;;;5136202;27;20121;-88
2023/12/22 09:33:43;;;;;;;19.33;2.45;;;6.90;99.90;;;;;;5136156;27;20129;-86
2023/12/22 09:36:09;;;;;;;21.85;3.83;;;7.00;99.90;;;;;;5135964;27;20051;-86
2023/12/22 09:38:36;;;;;;;20.65;2.33;;;6.70;99.90;;;;;;5117235;27;20053;-86
2023/12/22 09:41:02;;;;;;;18.50;2.55;;;6.30;99.90;;;;;;5134251;27;20129;-86
2023/12/22 09:43:28;;;;;;;16.88;2.72;;;6.10;99.90;;;;;;5134958;27;20039;-86
2023/12/22 09:45:54;;;;;;;20.23;2.17;;;6.10;99.90;;;;;;5138869;27;20391;-86
2023/12/22 09:48:28;;;;;;;17.40;1.98;;;6.90;99.90;;;;;;5139237;27;20054;-86
2023/12/22 09:50:55;;;;;;;18.23;2.70;;;6.50;99.90;;;;;;5138901;27;20038;-85
2023/12/22 09:53:21;;;;;;;21.35;3.13;;;7.10;99.90;;;;;;5156719;27;20046;-86
2023/12/22 09:55:49;;;;;;;14.32;2.17;;;7.30;99.90;;;;;;5156473;27;20371;-86
2023/12/22 09:58:16;;;;;;;18.02;2.50;;;7.40;99.90;;;;;;5175314;27;20117;-86
2023/12/22 10:00:43;;;;;;;13.85;2.10;;;7.30;99.90;;;;;;5141047;27;20490;-85
2023/12/22 10:03:11;;;;;;;24.95;2.35;;;6.40;99.90;;;;;;5137690;27;20039;-86
2023/12/22 10:05:37;;;;;;;22.77;2.67;;;7.00;99.90;;;;;;5136032;27;20047;-86
2023/12/22 10:08:05;;;;;;;22.45;2.13;;;6.50;99.90;;;;;;5137503;27;20043;-86
2023/12/22 10:10:32;;;;;;;21.42;2.15;;;6.60;99.90;;;;;;5140232;27;20035;-86
2023/12/22 10:12:59;;;;;;;19.40;2.28;;;7.80;99.90;;;;;;5165332;27;20394;-86
2023/12/22 10:15:26;;;;;;;16.77;1.42;;;6.80;99.90;;;;;;5179226;27;20047;-86
2023/12/22 10:17:54;;;;;;;15.52;2.15;;;7.60;99.90;;;;;;5141775;27;20078;-86
2023/12/22 10:20:20;;;;;;;20.40;2.55;;;7.00;99.90;;;;;;5139526;27;20054;-86
2023/12/22 10:22:46;;;;;;;12.13;1.70;;;7.30;99.90;;;;;;5158098;27;20034;-87
2023/12/22 10:25:16;;;;;;;11.52;1.70;;;7.90;99.90;;;;;;5139908;27;20039;-88
2023/12/22 10:27:43;;;;;;;15.43;2.45;;;8.20;99.90;;;;;;5142988;27;20044;-86
2023/12/22 10:30:10;;;;;;;15.18;2.08;;;7.40;99.90;;;;;;5168311;27;20034;-85
2023/12/22 10:32:41;;;;;;;12.32;2.05;;;7.00;99.90;;;;;;5139096;27;20041;-85
2023/12/22 10:35:10;;;;;;;19.50;2.05;;;7.90;99.90;;;;;;5138620;27;20095;-89
2023/12/22 10:37:38;;;;;;;19.58;2.33;;;7.00;99.90;;;;;;5158361;27;20039;-88
2023/12/22 10:40:05;;;;;;;19.60;2.00;;;7.10;99.90;;;;;;5122506;27;20126;-87
2023/12/22 10:42:32;;;;;;;17.85;1.80;;;7.00;99.90;;;;;;5139139;27;20047;-88
2023/12/22 10:44:58;;;;;;;15.60;2.53;;;7.10;99.90;;;;;;5139078;27;20082;-89
2023/12/22 10:47:24;;;;;;;16.25;3.00;;;7.10;99.90;;;;;;5138446;27;20074;-86
2023/12/22 10:49:49;;;;;;;21.30;1.95;;;8.10;99.90;;;;;;5139011;27;20042;-88
2023/12/22 10:52:18;;;;;;;22.85;1.92;;;7.10;99.90;;;;;;5157967;27;20084;-87
2023/12/22 10:54:45;;;;;;;20.17;2.28;;;7.80;99.90;;;;;;5122302;27;20138;-86
2023/12/22 10:57:17;;;;;;;21.95;2.55;;;7.60;99.90;;;;;;5141589;27;20077;-86
2023/12/22 10:59:47;;;;;;;12.43;1.80;;;7.30;99.90;;;;;;5155805;27;20478;-86
2023/12/22 11:02:17;;;;;;;13.13;2.30;;;8.20;99.90;;;;;;5178610;27;20046;-87
2023/12/22 11:05:01;;;;;;;14.57;3.00;;;7.10;99.90;;;;;;5157410;27;20038;-87
2023/12/22 11:07:28;;;;;;;16.73;2.30;;;7.20;99.90;;;;;;5142515;27;20394;-86
2023/12/22 11:09:56;;;;;;;19.13;2.20;;;7.90;99.90;;;;;;5148170;27;20487;-87
2023/12/22 11:12:24;;;;;;;18.88;2.20;;;7.30;99.90;;;;;;5130597;27;20055;-86
2023/12/22 11:14:52;;;;;;;15.70;1.83;;;8.20;99.90;;;;;;5133905;27;20047;-86
2023/12/22 11:17:22;;;;;;;18.88;2.63;;;7.30;99.90;;;;;;5138026;27;20038;-86
2023/12/22 11:19:54;;;;;;;21.45;1.98;;;7.30;99.90;;;;;;5137629;27;20047;-85
2023/12/22 11:22:21;;;;;;;27.33;2.85;;;8.00;99.90;;;;;;5138582;27;20435;-86
2023/12/22 11:24:50;;;;;;;17.27;2.65;;;7.30;99.90;;;;;;5120998;27;20117;-86
2023/12/22 11:27:23;;;;;;;14.68;1.85;;;7.80;99.90;;;;;;5120796;27;20054;-87
2023/12/22 11:29:50;;;;;;;15.50;1.90;;;7.50;99.90;;;;;;5137337;27;20038;-87
2023/12/22 11:32:18;;;;;;;12.15;1.92;;;7.40;99.90;;;;;;5138233;27;20035;-86
2023/12/22 11:34:47;;;;;;;21.83;2.50;;;7.40;99.90;;;;;;5138882;27;20494;-86
2023/12/22 11:37:16;;;;;;;19.10;2.58;;;7.90;99.90;;;;;;5134132;27;20402;-87
2023/12/22 11:39:43;;;;;;;20.67;2.70;;;7.70;99.90;;;;;;5138120;27;20035;-87
2023/12/22 11:42:19;;;;;;;19.63;2.17;;;7.40;99.90;;;;;;5137926;27;20034;-88
2023/12/22 11:44:45;;;;;;;16.30;2.13;;;7.70;99.90;;;;;;5120942;27;20503;-86
2023/12/22 11:47:13;;;;;;;14.15;1.90;;;7.90;99.90;;;;;;5161956;27;20042;-88
2023/12/22 11:49:39;;;;;;;18.52;2.17;;;7.50;99.90;;;;;;5130764;27;20163;-88
2023/12/22 11:52:13;;;;;;;13.35;1.65;;;7.60;99.90;;;;;;5135980;27;20081;-88
2023/12/22 11:54:52;;;;;;;9.10;1.98;;;7.40;99.90;;;;;;5135577;27;20039;-88
2023/12/22 11:57:27;;;;;;;15.48;1.95;;;7.60;99.90;;;;;;5130939;27;20038;-87
2023/12/22 11:59:56;;;;;;;20.17;2.10;;;7.60;99.90;;;;;;5137473;27;20502;-87
2023/12/22 12:02:22;;;;;;;16.60;2.20;;;8.40;99.90;;;;;;5137820;27;20129;-87
2023/12/22 12:04:50;;;;;;;17.25;1.92;;;8.20;99.90;;;;;;5120623;27;20379;-86
2023/12/22 12:07:49;;;;;;;10.80;1.48;;;8.20;99.90;;;;;;5156294;27;20041;-87
2023/12/22 12:10:33;;;;;;;14.95;1.67;;;7.60;99.90;;;;;;5120564;27;20122;-87
2023/12/22 12:13:08;;;;;;;17.70;1.35;;;7.70;99.90;;;;;;5156048;27;20057;-87
2023/12/22 12:15:34;;;;;;;19.13;1.63;;;7.60;99.90;;;;;;5139038;27;20038;-88
2023/12/22 12:18:01;;;;;;;15.10;1.63;;;8.30;99.90;;;;;;5144229;27;20408;-88
2023/12/22 12:20:27;;;;;;;6.95;1.52;;;7.50;99.90;;;;;;5155239;27;20050;-87
2023/12/22 12:22:54;;;;;;;12.60;1.83;;;7.50;99.90;;;;;;5120429;27;20039;-87
2023/12/22 12:25:25;;;;;;;11.90;1.73;;;7.50;99.90;;;;;;5137028;27;20402;-88
2023/12/22 12:28:08;;;;;;;14.35;1.85;;;7.50;99.90;;;;;;5129233;27;20046;-87
2023/12/22 12:30:36;;;;;;;11.32;1.45;;;7.50;99.90;;;;;;5158081;27;20125;-87
2023/12/22 12:33:16;;;;;;;13.43;1.52;;;8.10;99.90;;;;;;5160016;27;20501;-87
2023/12/22 12:35:45;;;;;;;11.75;1.60;;;7.50;99.90;;;;;;5159378;27;20081;-87
2023/12/22 12:38:10;;;;;;;11.43;1.75;;;7.50;99.90;;;;;;5157756;27;20080;-87
2023/12/22 12:40:39;;;;;;;15.23;2.53;;;7.50;99.90;;;;;;5158131;27;20073;-87
2023/12/22 12:43:05;;;;;;;12.27;1.73;;;7.50;99.90;;;;;;5139805;27;20129;-90
2023/12/22 12:45:31;;;;;;;15.27;1.60;;;7.90;99.90;;;;;;5139782;27;20065;-93
2023/12/22 12:48:03;;;;;;;13.45;2.20;;;8.40;99.90;;;;;;5120133;27;20478;-89
2023/12/22 12:50:31;;;;;;;17.52;1.98;;;8.60;99.90;;;;;;5137281;27;20503;-86